Time;durP1;ratioP1;P1;durP2;ratioP2;P2;SDS_P1;SDS_P2;PMS_P1;PMS_P2;Temp;Humidity;BMP_temperature;BMP_pressure;BME280_temperature;BME280_humidity;BME280_pressure;Samples;Min_cycle;Max_cycle;Signal;HPM_P1;HPM_P2
2023/09/25 00:01:50;;;;;;;3.70;2.38;;;;;;;12.16;90.15;102065.91;5043324;28;20107;-52
2023/09/25 00:04:16;;;;;;;2.75;2.40;;;;;;;12.15;89.87;102069.53;5039608;28;20379;-53
2023/09/25 00:06:41;;;;;;;3.00;2.22;;;;;;;12.16;89.95;102075.72;5045093;28;20450;-53
2023/09/25 00:09:07;;;;;;;3.17;2.17;;;;;;;12.13;89.59;102078.56;5042958;28;20031;-51
2023/09/25 00:11:32;;;;;;;4.35;2.40;;;;;;;12.10;89.94;102074.28;5043182;28;20106;-52
2023/09/25 00:13:57;;;;;;;4.15;2.13;;;;;;;12.08;89.92;102070.03;5045622;28;20487;-53
2023/09/25 00:16:23;;;;;;;3.72;2.55;;;;;;;12.05;90.08;102080.88;5039333;28;20471;-52
2023/09/25 00:18:49;;;;;;;3.15;2.08;;;;;;;12.00;89.71;102066.03;5041201;28;20025;-51
2023/09/25 00:21:14;;;;;;;5.82;2.40;;;;;;;12.00;90.37;102073.16;5043187;28;20112;-51
2023/09/25 00:23:40;;;;;;;3.38;2.28;;;;;;;12.00;90.09;102074.00;5040096;28;20025;-51
2023/09/25 00:26:06;;;;;;;4.05;2.55;;;;;;;11.96;90.27;102084.97;5044163;28;20283;-53
2023/09/25 00:28:32;;;;;;;3.13;2.30;;;;;;;11.96;90.03;102085.81;5044632;28;20422;-51
2023/09/25 00:30:58;;;;;;;2.70;2.25;;;;;;;11.95;89.93;102083.25;5043523;28;20017;-52
2023/09/25 00:33:23;;;;;;;4.68;2.50;;;;;;;11.95;90.00;102083.25;5045633;28;20035;-52
2023/09/25 00:35:49;;;;;;;5.70;2.47;;;;;;;11.92;90.11;102080.78;5047327;28;20478;-51
2023/09/25 00:38:14;;;;;;;3.47;2.40;;;;;;;11.91;90.62;102079.94;5049249;28;20121;-51
2023/09/25 00:40:39;;;;;;;4.88;2.15;;;;;;;11.89;90.80;102079.16;5051261;28;20021;-51
2023/09/25 00:43:08;;;;;;;3.88;2.40;;;;;;;11.87;90.69;102074.84;5053805;28;20050;-51
2023/09/25 00:45:37;;;;;;;3.27;2.10;;;;;;;11.86;90.46;102084.66;5044985;28;20110;-52
2023/09/25 00:48:04;;;;;;;3.15;2.08;;;;;;;11.84;90.51;102082.09;5051452;28;20733;-52
2023/09/25 00:50:31;;;;;;;3.80;2.35;;;;;;;11.84;90.72;102078.56;5050418;28;20025;-54
2023/09/25 00:53:02;;;;;;;3.10;2.38;;;;;;;11.82;90.52;102083.13;5047686;28;20490;-53
2023/09/25 00:55:28;;;;;;;4.90;2.60;;;;;;;11.81;90.94;102087.59;5051160;28;20356;-52
2023/09/25 00:57:55;;;;;;;2.67;2.42;;;;;;;11.77;90.64;102078.06;5048238;28;20079;-51
2023/09/25 01:00:21;;;;;;;3.50;2.33;;;;;;;11.75;90.64;102084.47;5048993;28;20463;-51
2023/09/25 01:02:47;;;;;;;4.13;2.45;;;;;;;11.73;90.79;102078.38;5046847;28;20436;-52
2023/09/25 01:05:13;;;;;;;3.88;2.45;;;;;;;11.72;90.84;102088.16;5044937;28;20024;-51
2023/09/25 01:07:40;;;;;;;5.55;2.38;;;;;;;11.67;91.18;102084.91;5042183;28;20067;-51
2023/09/25 01:10:09;;;;;;;5.03;2.28;;;;;;;11.65;91.13;102079.69;5045552;28;20024;-52
2023/09/25 01:12:35;;;;;;;4.93;2.53;;;;;;;11.65;91.55;102084.16;5049148;28;20477;-51
2023/09/25 01:15:01;;;;;;;3.88;2.45;;;;;;;11.63;91.87;102088.72;5049331;28;20029;-52
2023/09/25 01:17:26;;;;;;;5.43;2.47;;;;;;;11.60;91.78;102087.09;5046719;28;20044;-53
2023/09/25 01:19:51;;;;;;;3.35;2.45;;;;;;;11.60;91.51;102084.44;5046323;28;20029;-51
2023/09/25 01:22:17;;;;;;;3.10;2.25;;;;;;;11.57;91.54;102086.44;5044332;28;20033;-51
2023/09/25 01:24:42;;;;;;;3.95;2.65;;;;;;;11.54;91.77;102079.50;5044583;28;20051;-51
2023/09/25 01:27:07;;;;;;;4.03;2.70;;;;;;;11.53;91.77;102077.78;5051393;28;20021;-51
2023/09/25 01:29:32;;;;;;;4.80;2.45;;;;;;;11.52;91.62;102080.53;5045202;28;20132;-51
2023/09/25 01:31:58;;;;;;;4.70;2.50;;;;;;;11.52;91.51;102070.75;5043095;28;20476;-51
2023/09/25 01:34:23;;;;;;;4.47;2.28;;;;;;;11.51;91.74;102073.50;5047830;28;20033;-51
2023/09/25 01:36:48;;;;;;;5.65;2.60;;;;;;;11.48;91.67;102071.91;5046383;28;20033;-50
2023/09/25 01:39:14;;;;;;;4.22;2.40;;;;;;;11.46;92.18;102072.00;5043170;28;20401;-50
2023/09/25 01:41:40;;;;;;;2.72;2.35;;;;;;;11.46;91.66;102072.00;5049363;28;20454;-53
2023/09/25 01:44:06;;;;;;;3.15;2.40;;;;;;;11.45;91.47;102072.94;5046403;28;20133;-54
2023/09/25 01:46:32;;;;;;;3.05;2.40;;;;;;;11.41;92.06;102068.75;5046772;28;20057;-54
2023/09/25 01:48:58;;;;;;;5.30;2.20;;;;;;;11.42;91.41;102075.78;5042610;28;20060;-51
2023/09/25 01:51:23;;;;;;;4.05;2.75;;;;;;;11.39;92.26;102073.31;5048386;28;20040;-51
2023/09/25 01:53:50;;;;;;;5.22;3.13;;;;;;;11.38;92.00;102076.91;5044821;28;20450;-51
2023/09/25 01:56:16;;;;;;;6.88;2.83;;;;;;;11.37;91.97;102075.19;5042829;28;20506;-52
2023/09/25 01:58:42;;;;;;;5.53;2.80;;;;;;;11.34;92.20;102070.09;5045276;28;20033;-51
2023/09/25 02:01:08;;;;;;;4.15;2.83;;;;;;;11.34;92.52;102070.09;5042918;28;20025;-53
2023/09/25 02:03:33;;;;;;;5.50;2.70;;;;;;;11.32;92.09;102065.78;5047266;28;20555;-51
2023/09/25 02:05:58;;;;;;;5.07;3.00;;;;;;;11.30;92.34;102066.72;5041396;28;20030;-50
2023/09/25 02:08:23;;;;;;;5.13;2.95;;;;;;;11.29;92.36;102059.72;5044733;28;20380;-51
2023/09/25 02:10:49;;;;;;;4.38;2.95;;;;;;;11.26;92.75;102054.56;5042083;28;20040;-51
2023/09/25 02:13:14;;;;;;;5.85;3.10;;;;;;;11.24;92.83;102059.13;5045351;28;20056;-50
2023/09/25 02:15:40;;;;;;;5.15;2.88;;;;;;;11.24;92.70;102064.47;5049607;28;20475;-51
2023/09/25 02:18:05;;;;;;;3.42;2.80;;;;;;;11.22;92.58;102060.16;5048016;28;20460;-50
2023/09/25 02:20:31;;;;;;;3.33;2.65;;;;;;;11.21;92.66;102056.66;5045709;28;20471;-51
2023/09/25 02:22:56;;;;;;;5.47;2.90;;;;;;;11.22;92.75;102057.50;5042720;28;20074;-51
2023/09/25 02:25:22;;;;;;;3.47;2.55;;;;;;;11.21;92.38;102056.66;5037194;28;20036;-51
2023/09/25 02:27:47;;;;;;;6.32;2.67;;;;;;;11.21;92.44;102055.81;5037243;28;20029;-51
2023/09/25 02:30:13;;;;;;;6.25;2.78;;;;;;;11.19;92.52;102063.00;5048448;28;20021;-50
2023/09/25 02:32:40;;;;;;;4.13;2.70;;;;;;;11.18;91.95;102056.00;5039259;28;20071;-51
2023/09/25 02:35:07;;;;;;;6.22;3.13;;;;;;;11.18;92.63;102064.81;5041478;28;20032;-51
2023/09/25 02:37:32;;;;;;;5.35;2.90;;;;;;;11.18;92.23;102056.84;5046185;28;20021;-50
2023/09/25 02:39:57;;;;;;;5.53;2.83;;;;;;;11.18;92.37;102056.84;5042673;28;20028;-51
2023/09/25 02:42:23;;;;;;;5.82;2.92;;;;;;;11.18;92.22;102058.66;5040828;28;20061;-52
2023/09/25 02:44:48;;;;;;;8.25;2.85;;;;;;;11.17;92.19;102054.25;5048027;28;20029;-51
2023/09/25 02:47:13;;;;;;;5.10;3.15;;;;;;;11.16;91.80;102064.06;5039449;28;20511;-54
2023/09/25 02:49:39;;;;;;;5.35;3.08;;;;;;;11.16;91.96;102053.41;5044384;28;20028;-52
2023/09/25 02:52:04;;;;;;;3.55;2.75;;;;;;;11.14;91.70;102047.34;5043555;28;20017;-52
2023/09/25 02:54:29;;;;;;;3.95;2.75;;;;;;;11.12;91.94;102051.88;5043435;28;20021;-52
2023/09/25 02:56:55;;;;;;;5.43;2.42;;;;;;;11.16;91.63;102061.41;5038607;28;20371;-51
2023/09/25 02:59:20;;;;;;;8.32;2.55;;;;;;;11.12;91.68;102049.22;5042952;28;20030;-51
2023/09/25 03:01:45;;;;;;;5.28;2.90;;;;;;;11.13;91.34;102056.25;5049553;28;20075;-51
2023/09/25 03:04:11;;;;;;;4.72;2.95;;;;;;;11.13;91.42;102042.97;5041892;28;20357;-54
2023/09/25 03:06:36;;;;;;;4.72;2.75;;;;;;;11.12;91.28;102046.56;5041678;28;20446;-51
2023/09/25 03:09:01;;;;;;;6.20;3.00;;;;;;;11.11;91.29;102051.03;5039459;28;20029;-51
2023/09/25 03:11:27;;;;;;;8.02;2.90;;;;;;;11.11;91.27;102056.34;5045915;28;20025;-52
2023/09/25 03:13:52;;;;;;;4.97;2.60;;;;;;;11.11;91.34;102058.16;5042469;28;20369;-52
2023/09/25 03:16:18;;;;;;;2.78;2.53;;;;;;;11.09;91.25;102050.28;5045365;28;20061;-51
2023/09/25 03:18:44;;;;;;;4.82;2.75;;;;;;;11.08;91.12;102059.19;5039538;28;20057;-51
2023/09/25 03:21:14;;;;;;;6.63;2.67;;;;;;;11.08;91.46;102056.53;5044259;28;20057;-51
2023/09/25 03:23:40;;;;;;;5.05;2.70;;;;;;;11.07;91.27;102053.94;5044800;28;20025;-51
2023/09/25 03:26:16;;;;;;;4.53;2.95;;;;;;;11.06;91.57;102049.59;5043867;28;20025;-51
2023/09/25 03:28:43;;;;;;;4.35;2.78;;;;;;;11.06;91.34;102054.91;5039898;28;20086;-51
2023/09/25 03:31:10;;;;;;;4.57;2.83;;;;;;;11.06;91.62;102052.25;5042380;28;20043;-51
2023/09/25 03:33:36;;;;;;;3.90;2.80;;;;;;;11.04;91.07;102056.78;5036700;28;20033;-53
2023/09/25 03:36:01;;;;;;;5.07;2.92;;;;;;;11.04;91.21;102062.09;5040303;28;20443;-51
2023/09/25 03:38:27;;;;;;;4.95;3.17;;;;;;;11.04;90.90;102047.03;5038185;28;20051;-52
2023/09/25 03:40:52;;;;;;;4.38;2.72;;;;;;;11.05;90.94;102053.19;5042308;28;20138;-50
2023/09/25 03:43:17;;;;;;;5.20;2.72;;;;;;;11.05;91.03;102050.53;5041738;28;20385;-51
2023/09/25 03:45:43;;;;;;;5.50;2.72;;;;;;;11.05;91.23;102050.53;5045687;28;20013;-51
2023/09/25 03:48:09;;;;;;;4.80;2.85;;;;;;;11.02;91.49;102048.91;5043490;28;20047;-51
2023/09/25 03:50:34;;;;;;;6.53;3.20;;;;;;;11.03;91.33;102049.78;5038737;28;20029;-51
2023/09/25 03:53:02;;;;;;;5.50;2.80;;;;;;;11.02;91.48;102054.22;5047373;28;20434;-51
2023/09/25 03:55:28;;;;;;;6.73;2.97;;;;;;;11.01;91.39;102052.53;5051312;28;20028;-51
2023/09/25 03:57:53;;;;;;;5.47;2.75;;;;;;;11.01;91.12;102059.66;5051204;28;20033;-52
2023/09/25 04:00:18;;;;;;;5.55;3.00;;;;;;;11.01;91.28;102059.66;5050827;28;20024;-51
2023/09/25 04:02:45;;;;;;;6.15;2.70;;;;;;;11.00;91.04;102061.44;5050590;28;20021;-51
2023/09/25 04:05:12;;;;;;;3.28;2.40;;;;;;;10.99;91.51;102062.41;5050764;28;20119;-51
2023/09/25 04:07:37;;;;;;;4.32;2.75;;;;;;;11.02;90.59;102064.00;5051063;28;20078;-50
2023/09/25 04:10:03;;;;;;;4.55;2.67;;;;;;;11.02;91.38;102066.66;5051614;28;20033;-51
2023/09/25 04:12:29;;;;;;;6.50;3.03;;;;;;;11.01;92.15;102059.66;5050061;28;20379;-51
2023/09/25 04:14:55;;;;;;;3.63;2.72;;;;;;;11.01;90.88;102070.28;5051535;28;20107;-51
2023/09/25 04:17:20;;;;;;;6.57;3.05;;;;;;;11.02;90.55;102072.81;5050056;28;20439;-51
2023/09/25 04:19:48;;;;;;;3.45;2.40;;;;;;;11.03;91.04;102073.72;5050311;28;20533;-52
2023/09/25 04:22:13;;;;;;;5.38;2.83;;;;;;;11.02;90.86;102066.66;5051533;28;20021;-52
2023/09/25 04:24:39;;;;;;;6.13;3.00;;;;;;;11.01;91.02;102062.31;5050056;28;20090;-51
2023/09/25 04:27:04;;;;;;;6.15;2.70;;;;;;;11.03;90.39;102063.91;5051328;28;20609;-51
2023/09/25 04:29:29;;;;;;;3.88;2.65;;;;;;;11.03;90.31;102066.56;5050008;28;20032;-51
2023/09/25 04:31:55;;;;;;;4.22;2.70;;;;;;;11.02;90.56;102062.19;5051145;28;20094;-51
2023/09/25 04:34:20;;;;;;;6.22;2.97;;;;;;;11.02;90.39;102064.00;5047195;28;20387;-51
2023/09/25 04:36:46;;;;;;;4.22;2.85;;;;;;;11.00;90.61;102065.91;5049825;28;20028;-51
2023/09/25 04:39:12;;;;;;;4.43;2.80;;;;;;;11.01;90.69;102070.28;5050821;28;20472;-51
2023/09/25 04:41:37;;;;;;;6.57;2.75;;;;;;;11.01;91.18;102071.13;5051304;28;20167;-51
2023/09/25 04:44:04;;;;;;;5.43;2.97;;;;;;;11.06;89.88;102070.88;5050045;28;20047;-51
2023/09/25 04:46:30;;;;;;;5.45;2.95;;;;;;;11.06;90.20;102070.88;5051249;28;20025;-51
2023/09/25 04:48:55;;;;;;;5.13;2.83;;;;;;;11.07;89.62;102073.44;5050057;28;20390;-51
2023/09/25 04:51:21;;;;;;;4.25;2.63;;;;;;;11.09;89.41;102076.84;5051309;28;20554;-51
2023/09/25 04:53:46;;;;;;;4.35;2.60;;;;;;;11.10;89.55;102067.91;5050473;28;20029;-50
2023/09/25 04:56:20;;;;;;;2.95;2.33;;;;;;;11.08;89.84;102072.47;5050417;28;20120;-53
2023/09/25 04:58:45;;;;;;;4.00;2.80;;;;;;;11.07;90.57;102076.09;5051133;28;20017;-51
2023/09/25 05:01:10;;;;;;;4.50;2.72;;;;;;;11.08;89.41;102074.28;5046793;28;20036;-51
2023/09/25 05:03:35;;;;;;;3.53;2.70;;;;;;;11.07;89.76;102080.53;5050956;28;20033;-51
2023/09/25 05:06:01;;;;;;;4.57;2.80;;;;;;;11.08;89.37;102084.94;5050712;28;20033;-51
2023/09/25 05:08:26;;;;;;;4.68;2.67;;;;;;;11.08;89.12;102076.94;5050480;28;20055;-51
2023/09/25 05:10:51;;;;;;;4.03;2.60;;;;;;;11.08;89.55;102080.44;5051489;28;20061;-53
2023/09/25 05:13:17;;;;;;;5.43;2.65;;;;;;;11.10;89.18;102083.88;5051705;28;20440;-50
2023/09/25 05:15:42;;;;;;;4.80;2.58;;;;;;;11.09;89.26;102084.84;5049988;28;20037;-51
2023/09/25 05:18:07;;;;;;;5.85;2.80;;;;;;;11.06;89.08;102086.81;5051258;28;20379;-51
2023/09/25 05:20:34;;;;;;;5.68;2.80;;;;;;;11.04;89.34;102081.59;5053059;28;20115;-51
2023/09/25 05:22:59;;;;;;;4.80;2.85;;;;;;;11.06;89.15;102087.66;5054936;28;20471;-51
2023/09/25 05:25:26;;;;;;;6.00;2.63;;;;;;;11.07;89.36;102091.19;5054543;28;20040;-51
2023/09/25 05:27:54;;;;;;;5.20;3.00;;;;;;;11.05;88.77;102088.59;5053654;28;20033;-52
2023/09/25 05:30:20;;;;;;;4.57;2.70;;;;;;;11.05;89.48;102096.56;5054936;28;20100;-50
2023/09/25 05:32:50;;;;;;;5.53;2.95;;;;;;;11.04;89.11;102091.34;5054216;28;20021;-50
2023/09/25 05:35:17;;;;;;;3.38;2.72;;;;;;;11.04;89.33;102097.53;5054591;28;20053;-50
2023/09/25 05:37:45;;;;;;;5.75;2.75;;;;;;;11.05;89.24;102093.06;5047348;28;20022;-50
2023/09/25 05:40:11;;;;;;;6.65;2.63;;;;;;;11.05;89.34;102088.59;5054218;28;20576;-52
2023/09/25 05:42:44;;;;;;;8.60;2.85;;;;;;;11.03;89.11;102085.19;5054830;28;20049;-51
2023/09/25 05:45:11;;;;;;;5.45;3.13;;;;;;;11.03;89.11;102092.31;5047117;28;20033;-51
2023/09/25 05:47:37;;;;;;;7.60;2.90;;;;;;;11.01;89.72;102100.38;5054877;28;20636;-54
2023/09/25 05:50:03;;;;;;;9.82;2.85;;;;;;;11.05;89.23;102101.06;5051838;28;20326;-51
2023/09/25 05:52:29;;;;;;;5.70;2.60;;;;;;;11.04;89.81;102097.53;5048987;28;20086;-51
2023/09/25 05:54:54;;;;;;;5.38;2.42;;;;;;;11.05;88.95;102099.25;5050712;28;20060;-49
2023/09/25 05:57:20;;;;;;;7.65;3.10;;;;;;;11.07;89.50;102101.81;5052323;28;20032;-49
2023/09/25 05:59:45;;;;;;;6.03;2.60;;;;;;;11.08;88.78;102101.72;5051529;28;20033;-50
2023/09/25 06:02:11;;;;;;;8.25;3.03;;;;;;;11.11;89.71;102100.69;5053661;28;20017;-50
2023/09/25 06:04:37;;;;;;;6.88;2.67;;;;;;;11.12;90.14;102105.06;5052844;28;20025;-51
2023/09/25 06:07:06;;;;;;;4.35;2.70;;;;;;;11.13;89.08;102101.47;5050204;28;20032;-51
2023/09/25 06:09:33;;;;;;;5.90;2.80;;;;;;;11.14;89.19;102108.50;5045628;28;20036;-50
2023/09/25 06:11:58;;;;;;;4.82;2.90;;;;;;;11.16;88.79;102103.94;5043768;28;20049;-52
2023/09/25 06:14:25;;;;;;;5.88;2.85;;;;;;;11.18;89.48;102107.34;5046749;28;20082;-49
2023/09/25 06:16:51;;;;;;;3.22;2.75;;;;;;;11.21;88.79;102106.34;5045235;28;20029;-51
2023/09/25 06:19:18;;;;;;;4.80;2.75;;;;;;;11.25;88.81;102111.34;5044028;28;20563;-50
2023/09/25 06:21:44;;;;;;;5.20;2.78;;;;;;;11.29;88.47;102107.59;5046340;28;20480;-50
2023/09/25 06:24:09;;;;;;;8.13;3.10;;;;;;;11.33;88.47;102104.75;5042862;28;20116;-52
2023/09/25 06:26:41;;;;;;;9.68;3.03;;;;;;;11.37;87.80;102107.13;5051972;28;20100;-51
2023/09/25 06:29:08;;;;;;;4.45;2.70;;;;;;;11.40;87.71;102111.41;5050703;28;20091;-51
2023/09/25 06:31:36;;;;;;;3.83;2.85;;;;;;;11.44;88.28;102111.13;5048526;28;20040;-52
2023/09/25 06:34:01;;;;;;;5.60;2.70;;;;;;;11.47;87.58;102102.09;5049810;28;20022;-51
2023/09/25 06:36:26;;;;;;;5.55;3.03;;;;;;;11.54;88.01;102111.44;5050314;28;20035;-51
2023/09/25 06:38:52;;;;;;;5.35;2.65;;;;;;;11.58;88.23;102102.31;5048859;28;20014;-48
2023/09/25 06:41:17;;;;;;;5.05;3.03;;;;;;;11.63;87.45;102108.22;5049536;28;20017;-49
2023/09/25 06:43:42;;;;;;;8.25;3.03;;;;;;;11.67;87.28;102116.84;5050824;28;20048;-50
2023/09/25 06:46:08;;;;;;;3.42;2.53;;;;;;;11.73;87.65;102110.31;5044829;28;20025;-51
2023/09/25 06:48:33;;;;;;;5.22;2.90;;;;;;;11.77;86.86;102123.31;5052152;28;20048;-52
2023/09/25 06:50:59;;;;;;;4.78;2.58;;;;;;;11.83;86.68;102114.13;5051994;28;20076;-51
2023/09/25 06:53:25;;;;;;;4.63;2.33;;;;;;;11.89;85.69;102115.53;5048683;28;20045;-51
2023/09/25 06:55:50;;;;;;;4.75;2.80;;;;;;;11.96;86.49;102112.44;5043956;28;20045;-52
2023/09/25 06:58:16;;;;;;;6.25;2.70;;;;;;;12.01;86.54;102117.50;5046413;28;20029;-51
2023/09/25 07:00:44;;;;;;;5.60;2.97;;;;;;;12.07;85.37;102118.91;5047058;28;20108;-52
2023/09/25 07:03:09;;;;;;;3.80;2.80;;;;;;;12.15;85.11;102120.13;5050613;28;20021;-51
2023/09/25 07:05:34;;;;;;;5.80;3.03;;;;;;;12.23;85.01;102113.47;5046822;28;20051;-52
2023/09/25 07:07:59;;;;;;;5.32;2.40;;;;;;;12.31;84.32;102106.72;5048938;28;20316;-51
2023/09/25 07:10:25;;;;;;;6.88;2.90;;;;;;;12.41;84.00;102106.97;5049210;28;20106;-50
2023/09/25 07:12:50;;;;;;;3.92;2.80;;;;;;;12.51;83.77;102108.09;5047268;28;20036;-50
2023/09/25 07:15:15;;;;;;;3.30;2.40;;;;;;;12.61;85.42;102108.34;5048646;28;20036;-51
2023/09/25 07:17:42;;;;;;;4.10;2.22;;;;;;;12.71;83.90;102120.13;5050374;28;20443;-53
2023/09/25 07:20:09;;;;;;;3.20;2.70;;;;;;;12.81;84.28;102115.03;5045905;28;20512;-51
2023/09/25 07:22:35;;;;;;;3.25;2.38;;;;;;;12.93;83.38;102113.38;5052147;28;20021;-50
2023/09/25 07:25:00;;;;;;;7.47;2.63;;;;;;;13.02;83.05;102109.22;5046647;28;20040;-51
2023/09/25 07:27:27;;;;;;;3.22;2.50;;;;;;;13.20;82.43;102115.16;5050374;28;20468;-51
2023/09/25 07:29:53;;;;;;;2.80;2.03;;;;;;;13.37;81.57;102114.88;5047934;28;20024;-50
2023/09/25 07:32:18;;;;;;;7.00;2.85;;;;;;;13.53;82.86;102105.84;5044007;28;20025;-50
2023/09/25 07:34:45;;;;;;;4.30;2.55;;;;;;;13.69;79.67;102118.03;5049162;28;20027;-49
2023/09/25 07:37:12;;;;;;;4.22;2.47;;;;;;;13.87;79.16;102113.22;5045681;28;20557;-49
2023/09/25 07:39:40;;;;;;;4.45;2.22;;;;;;;14.01;77.78;102112.22;5043598;28;20032;-50
2023/09/25 07:42:08;;;;;;;3.17;2.50;;;;;;;14.15;76.47;102111.22;5049383;28;20047;-52
2023/09/25 07:44:34;;;;;;;3.97;2.78;;;;;;;14.30;76.83;102109.28;5048626;28;20029;-50
2023/09/25 07:47:00;;;;;;;4.25;2.17;;;;;;;14.46;77.64;102110.88;5049787;28;20028;-50
2023/09/25 07:49:29;;;;;;;3.42;2.40;;;;;;;14.60;76.02;102100.03;5046227;28;20029;-51
2023/09/25 07:51:54;;;;;;;3.88;2.08;;;;;;;14.76;76.54;102107.78;5041381;28;20082;-52
2023/09/25 07:54:20;;;;;;;2.60;2.00;;;;;;;14.87;74.11;102106.97;5047041;28;20391;-51
2023/09/25 07:56:47;;;;;;;4.03;1.90;;;;;;;14.97;74.62;102100.81;5043610;28;20036;-51
2023/09/25 07:59:13;;;;;;;3.70;2.10;;;;;;;15.06;74.95;102103.78;5040633;28;20051;-51
2023/09/25 08:01:39;;;;;;;3.30;2.50;;;;;;;15.14;73.72;102112.06;5045156;28;20022;-51
2023/09/25 08:04:05;;;;;;;2.17;1.98;;;;;;;15.24;76.17;102110.41;5043224;28;20030;-52
2023/09/25 08:06:31;;;;;;;3.92;2.40;;;;;;;15.32;72.52;102109.78;5042891;28;20083;-52
2023/09/25 08:08:59;;;;;;;5.07;2.83;;;;;;;15.38;72.06;102113.84;5042406;28;20025;-51
2023/09/25 08:11:25;;;;;;;3.10;2.30;;;;;;;15.40;73.30;102111.91;5042839;28;20025;-52
2023/09/25 08:13:53;;;;;;;4.00;2.30;;;;;;;15.50;71.48;102112.88;5043942;28;20501;-50
2023/09/25 08:16:18;;;;;;;2.88;2.28;;;;;;;15.62;73.25;102114.63;5050472;28;20017;-51
2023/09/25 08:18:45;;;;;;;5.47;2.30;;;;;;;15.77;72.62;102112.63;5046091;28;20041;-50
2023/09/25 08:21:10;;;;;;;7.05;2.30;;;;;;;15.90;73.85;102116.03;5046415;28;20033;-50
2023/09/25 08:23:36;;;;;;;3.97;2.40;;;;;;;15.96;70.36;102116.50;5047941;28;20111;-51
2023/09/25 08:26:05;;;;;;;7.65;2.05;;;;;;;16.08;71.28;102115.53;5045788;28;20152;-49
2023/09/25 08:28:32;;;;;;;3.70;2.03;;;;;;;16.19;70.15;102120.03;5049055;28;20044;-51
2023/09/25 08:30:58;;;;;;;3.25;2.30;;;;;;;16.33;71.33;102111.72;5045091;28;20509;-50
2023/09/25 08:33:23;;;;;;;2.85;1.80;;;;;;;16.46;69.93;102108.91;5049824;28;20037;-51
2023/09/25 08:35:48;;;;;;;4.10;2.20;;;;;;;16.69;69.40;102098.97;5050352;28;20120;-52
2023/09/25 08:38:14;;;;;;;3.58;2.05;;;;;;;16.89;68.98;102093.81;5047822;28;20490;-52
2023/09/25 08:40:44;;;;;;;4.03;2.10;;;;;;;16.98;68.62;102107.28;5042013;28;20029;-50
2023/09/25 08:43:10;;;;;;;3.33;2.50;;;;;;;17.12;70.03;102094.53;5041908;28;20481;-50
2023/09/25 08:45:36;;;;;;;3.58;2.20;;;;;;;17.30;68.86;102089.44;5046597;28;20021;-49
2023/09/25 08:48:02;;;;;;;4.47;2.25;;;;;;;17.45;66.08;102096.16;5049700;28;20403;-50
2023/09/25 08:50:27;;;;;;;2.88;2.30;;;;;;;17.64;66.27;102091.91;5047430;28;20033;-50
2023/09/25 08:52:55;;;;;;;3.92;2.50;;;;;;;17.69;64.00;102095.06;5048419;28;20036;-49
2023/09/25 08:55:21;;;;;;;3.40;2.00;;;;;;;17.87;65.46;102090.78;5054192;28;20029;-50
2023/09/25 08:57:47;;;;;;;6.50;2.13;;;;;;;18.06;65.48;102090.00;5054090;28;20783;-51
2023/09/25 09:00:14;;;;;;;4.10;2.13;;;;;;;18.15;63.57;102090.16;5054622;28;20037;-51
2023/09/25 09:02:40;;;;;;;3.22;2.15;;;;;;;18.30;63.90;102092.34;5054025;28;20020;-51
2023/09/25 09:05:11;;;;;;;2.60;2.17;;;;;;;18.48;65.77;102086.28;5054030;28;20471;-51
2023/09/25 09:07:37;;;;;;;5.38;2.05;;;;;;;18.64;65.60;102089.28;5054620;28;20027;-52
2023/09/25 09:10:03;;;;;;;3.30;2.00;;;;;;;18.82;62.40;102093.97;5054112;28;20032;-55
2023/09/25 09:12:28;;;;;;;3.17;2.00;;;;;;;18.91;63.41;102081.53;5039032;28;20033;-54
2023/09/25 09:14:53;;;;;;;3.85;1.80;;;;;;;19.14;64.14;102088.31;5044367;28;20056;-51
2023/09/25 09:17:19;;;;;;;5.00;2.25;;;;;;;19.25;62.52;102084.59;5053647;28;20024;-53
2023/09/25 09:19:47;;;;;;;4.67;2.20;;;;;;;19.33;64.22;102083.88;5053372;28;20537;-51
2023/09/25 09:22:15;;;;;;;7.00;2.30;;;;;;;19.41;60.01;102082.16;5050151;28;20279;-52
2023/09/25 09:24:41;;;;;;;3.08;2.10;;;;;;;19.42;61.39;102086.56;5053138;28;20317;-51
2023/09/25 09:27:07;;;;;;;3.85;2.10;;;;;;;19.50;62.45;102093.06;5053494;28;20075;-51
2023/09/25 09:29:41;;;;;;;6.82;2.17;;;;;;;19.57;62.73;102094.19;5044405;28;20490;-53
2023/09/25 09:32:08;;;;;;;3.55;1.77;;;;;;;19.55;62.18;102094.34;5051881;28;20025;-54
2023/09/25 09:34:34;;;;;;;6.78;2.10;;;;;;;19.68;60.81;102093.16;5052456;28;20025;-51
2023/09/25 09:37:00;;;;;;;3.90;2.28;;;;;;;19.71;59.95;102095.56;5052999;28;20033;-51
2023/09/25 09:39:26;;;;;;;3.03;2.08;;;;;;;19.71;60.16;102096.41;5053740;28;20021;-51
2023/09/25 09:41:52;;;;;;;4.60;2.35;;;;;;;19.75;59.66;102094.28;5051798;28;20120;-51
2023/09/25 09:44:19;;;;;;;2.88;2.10;;;;;;;19.81;60.01;102093.72;5050884;28;20139;-50
2023/09/25 09:46:46;;;;;;;4.25;2.30;;;;;;;19.87;59.53;102095.00;5050071;28;20079;-51
2023/09/25 09:49:14;;;;;;;4.07;1.90;;;;;;;20.05;62.42;102095.03;5051707;28;20061;-51
2023/09/25 09:51:43;;;;;;;2.70;1.88;;;;;;;20.11;59.85;102099.81;5050175;28;20021;-51
2023/09/25 09:54:11;;;;;;;2.65;2.35;;;;;;;20.22;61.70;102101.50;5051366;28;20116;-51
2023/09/25 09:56:38;;;;;;;3.83;2.00;;;;;;;20.42;61.31;102102.22;5053416;28;20467;-51
2023/09/25 09:59:04;;;;;;;4.00;1.98;;;;;;;20.55;60.79;102102.69;5051988;28;20108;-51
2023/09/25 10:01:32;;;;;;;3.47;1.90;;;;;;;20.67;59.39;102103.34;5053422;28;20453;-50
2023/09/25 10:03:57;;;;;;;2.08;1.70;;;;;;;20.71;58.70;102099.34;5053486;28;20107;-50
2023/09/25 10:06:28;;;;;;;5.88;1.98;;;;;;;20.80;59.97;102101.13;5047931;28;20124;-51
2023/09/25 10:09:01;;;;;;;4.95;2.00;;;;;;;20.91;59.60;102108.13;5052712;28;20029;-51
2023/09/25 10:11:27;;;;;;;6.88;1.92;;;;;;;21.10;59.94;102100.84;5044685;28;20075;-52
2023/09/25 10:13:55;;;;;;;2.90;1.85;;;;;;;21.09;56.89;102102.72;5049205;28;20025;-53
2023/09/25 10:16:20;;;;;;;4.82;1.60;;;;;;;21.05;60.08;102094.09;5041401;28;20032;-51
2023/09/25 10:18:51;;;;;;;5.07;2.28;;;;;;;21.24;57.32;102095.75;5051442;28;20029;-52
2023/09/25 10:21:17;;;;;;;3.08;1.65;;;;;;;21.28;54.72;102092.72;5043882;28;20147;-53
2023/09/25 10:23:46;;;;;;;2.55;1.63;;;;;;;21.42;56.01;102094.88;5052203;28;20149;-53
2023/09/25 10:26:18;;;;;;;3.47;1.85;;;;;;;21.48;57.99;102096.94;5050495;28;20062;-52
2023/09/25 10:28:44;;;;;;;1.70;1.50;;;;;;;21.54;57.53;102098.19;5043774;28;20029;-52
2023/09/25 10:31:21;;;;;;;2.42;1.45;;;;;;;21.73;57.43;102103.38;5043234;28;20083;-52
2023/09/25 10:33:58;;;;;;;2.22;1.60;;;;;;;21.83;58.28;102100.53;5044303;28;20025;-54
2023/09/25 10:36:37;;;;;;;1.70;1.60;;;;;;;21.92;56.09;102096.88;5044602;28;20029;-53
2023/09/25 10:39:05;;;;;;;3.95;2.08;;;;;;;21.94;55.93;102091.28;5043212;28;20383;-52
2023/09/25 10:41:30;;;;;;;2.38;1.77;;;;;;;21.98;55.86;102095.34;5045506;28;20475;-54
2023/09/25 10:43:57;;;;;;;2.70;1.80;;;;;;;22.21;56.59;102097.47;5045340;28;20037;-55
2023/09/25 10:46:22;;;;;;;2.47;1.80;;;;;;;22.31;58.10;102090.09;5047599;28;20021;-52
2023/09/25 10:48:47;;;;;;;3.13;1.42;;;;;;;22.29;54.08;102087.56;5048180;28;20356;-56
2023/09/25 10:51:15;;;;;;;3.95;1.60;;;;;;;22.39;54.54;102087.41;5048394;28;20479;-52
2023/09/25 10:53:40;;;;;;;2.45;1.73;;;;;;;22.40;52.72;102078.31;5051979;28;20056;-52
2023/09/25 10:56:05;;;;;;;2.77;1.57;;;;;;;22.43;52.62;102090.63;5050520;28;20428;-52
2023/09/25 10:58:31;;;;;;;1.67;1.50;;;;;;;22.46;51.93;102084.91;5051372;28;20291;-53
2023/09/25 11:00:56;;;;;;;3.17;1.77;;;;;;;22.46;51.04;102085.72;5048142;28;20048;-55
2023/09/25 11:03:22;;;;;;;2.13;1.50;;;;;;;22.46;52.78;102085.72;5047371;28;20467;-53
2023/09/25 11:05:48;;;;;;;1.83;1.50;;;;;;;22.57;52.67;102098.13;5051698;28;20132;-54
2023/09/25 11:08:15;;;;;;;4.05;1.50;;;;;;;22.73;54.75;102090.03;5046863;28;20475;-52
2023/09/25 11:10:42;;;;;;;3.80;1.75;;;;;;;22.81;54.69;102101.88;5048238;28;20067;-53
2023/09/25 11:13:07;;;;;;;6.40;1.88;;;;;;;22.86;52.71;102097.63;5049102;28;20112;-52
2023/09/25 11:15:40;;;;;;;4.72;1.70;;;;;;;22.91;52.97;102092.59;5049676;28;20104;-53
2023/09/25 11:18:08;;;;;;;2.60;1.67;;;;;;;23.01;51.29;102091.56;5045170;28;20028;-52
2023/09/25 11:20:33;;;;;;;3.20;1.70;;;;;;;23.16;52.53;102089.88;5051623;28;20045;-52